sensor_id;sensor_type;location;lat;lon;timestamp;temperature;humidity
9509;DHT22;4792;50.088;8.122;2022-09-09T00:01:54;15.00;99.90
9509;DHT22;4792;50.088;8.122;2022-09-09T00:04:30;15.00;99.90
9509;DHT22;4792;50.088;8.122;2022-09-09T00:07:07;14.90;99.90
9509;DHT22;4792;50.088;8.122;2022-09-09T00:10:00;14.80;99.90
9509;DHT22;4792;50.088;8.122;2022-09-09T00:12:47;14.80;99.90
9509;DHT22;4792;50.088;8.122;2022-09-09T00:15:20;14.80;99.90
9509;DHT22;4792;50.088;8.122;2022-09-09T00:18:01;14.80;99.90
9509;DHT22;4792;50.088;8.122;2022-09-09T00:20:34;14.70;99.90
9509;DHT22;4792;50.088;8.122;2022-09-09T00:23:10;14.70;99.90
9509;DHT22;4792;50.088;8.122;2022-09-09T00:25:45;14.70;99.90
9509;DHT22;4792;50.088;8.122;2022-09-09T00:28:21;14.60;99.90
9509;DHT22;4792;50.088;8.122;2022-09-09T00:30:50;14.60;99.90
9509;DHT22;4792;50.088;8.122;2022-09-09T00:33:23;14.60;99.90
9509;DHT22;4792;50.088;8.122;2022-09-09T00:35:54;14.60;99.90
9509;DHT22;4792;50.088;8.122;2022-09-09T00:38:28;14.50;99.90
9509;DHT22;4792;50.088;8.122;2022-09-09T00:41:05;14.50;99.90
9509;DHT22;4792;50.088;8.122;2022-09-09T00:43:37;14.50;99.90
9509;DHT22;4792;50.088;8.122;2022-09-09T00:46:25;14.50;99.90
9509;DHT22;4792;50.088;8.122;2022-09-09T00:49:05;14.50;99.90
9509;DHT22;4792;50.088;8.122;2022-09-09T00:51:46;14.50;99.90
9509;DHT22;4792;50.088;8.122;2022-09-09T00:54:27;14.40;99.90
9509;DHT22;4792;50.088;8.122;2022-09-09T00:57:04;14.40;99.90
9509;DHT22;4792;50.088;8.122;2022-09-09T00:59:44;14.40;99.90
9509;DHT22;4792;50.088;8.122;2022-09-09T01:02:21;14.40;99.90
9509;DHT22;4792;50.088;8.122;2022-09-09T01:04:58;14.40;99.90
9509;DHT22;4792;50.088;8.122;2022-09-09T01:07:27;14.30;99.90
9509;DHT22;4792;50.088;8.122;2022-09-09T01:09:56;14.30;99.90
9509;DHT22;4792;50.088;8.122;2022-09-09T01:12:30;14.30;99.90
9509;DHT22;4792;50.088;8.122;2022-09-09T01:15:07;14.30;99.90
9509;DHT22;4792;50.088;8.122;2022-09-09T01:17:44;14.30;99.90
9509;DHT22;4792;50.088;8.122;2022-09-09T01:20:18;14.20;99.90
9509;DHT22;4792;50.088;8.122;2022-09-09T01:23:10;14.20;99.90
9509;DHT22;4792;50.088;8.122;2022-09-09T01:26:21;14.20;99.90
9509;DHT22;4792;50.088;8.122;2022-09-09T01:28:51;14.10;99.90
9509;DHT22;4792;50.088;8.122;2022-09-09T01:31:22;14.10;99.90
9509;DHT22;4792;50.088;8.122;2022-09-09T01:33:51;14.10;99.90
9509;DHT22;4792;50.088;8.122;2022-09-09T01:36:24;14.00;99.90
9509;DHT22;4792;50.088;8.122;2022-09-09T01:38:54;14.00;99.90
9509;DHT22;4792;50.088;8.122;2022-09-09T01:41:23;14.10;99.90
9509;DHT22;4792;50.088;8.122;2022-09-09T01:43:53;14.10;99.90
9509;DHT22;4792;50.088;8.122;2022-09-09T01:46:23;14.10;99.90
9509;DHT22;4792;50.088;8.122;2022-09-09T01:48:52;14.10;99.90
9509;DHT22;4792;50.088;8.122;2022-09-09T01:51:21;14.00;99.90
9509;DHT22;4792;50.088;8.122;2022-09-09T01:53:50;14.00;99.90
9509;DHT22;4792;50.088;8.122;2022-09-09T01:56:29;14.00;99.90
9509;DHT22;4792;50.088;8.122;2022-09-09T01:59:11;14.00;99.90
9509;DHT22;4792;50.088;8.122;2022-09-09T02:01:57;14.00;99.90
9509;DHT22;4792;50.088;8.122;2022-09-09T02:04:37;14.10;99.90
9509;DHT22;4792;50.088;8.122;2022-09-09T02:07:12;14.00;99.90
9509;DHT22;4792;50.088;8.122;2022-09-09T02:09:44;14.00;99.90
9509;DHT22;4792;50.088;8.122;2022-09-09T02:12:18;14.00;99.90
9509;DHT22;4792;50.088;8.122;2022-09-09T02:14:52;14.10;99.90
9509;DHT22;4792;50.088;8.122;2022-09-09T02:17:26;14.10;99.90
9509;DHT22;4792;50.088;8.122;2022-09-09T02:20:00;14.10;99.90
9509;DHT22;4792;50.088;8.122;2022-09-09T02:22:32;14.10;99.90
9509;DHT22;4792;50.088;8.122;2022-09-09T02:25:03;14.20;99.90
9509;DHT22;4792;50.088;8.122;2022-09-09T02:27:34;14.20;99.90
9509;DHT22;4792;50.088;8.122;2022-09-09T02:30:04;14.20;99.90
9509;DHT22;4792;50.088;8.122;2022-09-09T02:32:35;14.20;99.90
9509;DHT22;4792;50.088;8.122;2022-09-09T02:35:07;14.30;99.90
9509;DHT22;4792;50.088;8.122;2022-09-09T02:37:39;14.30;99.90
9509;DHT22;4792;50.088;8.122;2022-09-09T02:40:10;14.30;99.90
9509;DHT22;4792;50.088;8.122;2022-09-09T02:42:42;14.30;99.90
9509;DHT22;4792;50.088;8.122;2022-09-09T02:45:13;14.30;99.90
9509;DHT22;4792;50.088;8.122;2022-09-09T02:47:47;14.40;99.90
9509;DHT22;4792;50.088;8.122;2022-09-09T02:50:19;14.30;99.90
9509;DHT22;4792;50.088;8.122;2022-09-09T02:52:59;14.40;99.90
9509;DHT22;4792;50.088;8.122;2022-09-09T02:55:38;14.40;99.90
9509;DHT22;4792;50.088;8.122;2022-09-09T02:58:09;14.40;99.90
9509;DHT22;4792;50.088;8.122;2022-09-09T03:00:39;14.40;99.90
9509;DHT22;4792;50.088;8.122;2022-09-09T03:03:08;14.30;99.90
9509;DHT22;4792;50.088;8.122;2022-09-09T03:05:37;14.30;99.90
9509;DHT22;4792;50.088;8.122;2022-09-09T03:08:05;14.30;99.90
9509;DHT22;4792;50.088;8.122;2022-09-09T03:10:34;14.20;99.90
9509;DHT22;4792;50.088;8.122;2022-09-09T03:13:04;14.20;99.90
9509;DHT22;4792;50.088;8.122;2022-09-09T03:15:34;14.30;99.90
9509;DHT22;4792;50.088;8.122;2022-09-09T03:18:02;14.20;99.90
9509;DHT22;4792;50.088;8.122;2022-09-09T03:20:31;14.20;99.90
9509;DHT22;4792;50.088;8.122;2022-09-09T03:22:59;14.20;99.90
9509;DHT22;4792;50.088;8.122;2022-09-09T03:25:28;14.20;99.90
9509;DHT22;4792;50.088;8.122;2022-09-09T03:27:56;14.20;99.90
9509;DHT22;4792;50.088;8.122;2022-09-09T03:30:26;14.20;99.90
9509;DHT22;4792;50.088;8.122;2022-09-09T03:32:56;14.20;99.90
9509;DHT22;4792;50.088;8.122;2022-09-09T03:35:25;14.30;99.90
9509;DHT22;4792;50.088;8.122;2022-09-09T03:37:53;14.30;99.90
9509;DHT22;4792;50.088;8.122;2022-09-09T03:40:22;14.50;99.90
9509;DHT22;4792;50.088;8.122;2022-09-09T03:42:50;14.40;99.90
9509;DHT22;4792;50.088;8.122;2022-09-09T03:45:18;14.40;99.90
9509;DHT22;4792;50.088;8.122;2022-09-09T03:47:46;14.40;99.90
9509;DHT22;4792;50.088;8.122;2022-09-09T03:50:16;14.40;99.90
9509;DHT22;4792;50.088;8.122;2022-09-09T03:52:45;14.40;99.90
9509;DHT22;4792;50.088;8.122;2022-09-09T03:55:13;14.40;99.90
9509;DHT22;4792;50.088;8.122;2022-09-09T03:57:41;14.40;99.90
9509;DHT22;4792;50.088;8.122;2022-09-09T04:00:10;14.50;99.90
9509;DHT22;4792;50.088;8.122;2022-09-09T04:02:38;14.40;99.90
9509;DHT22;4792;50.088;8.122;2022-09-09T04:05:07;14.40;99.90
9509;DHT22;4792;50.088;8.122;2022-09-09T04:07:37;14.30;99.90
9509;DHT22;4792;50.088;8.122;2022-09-09T04:10:06;14.40;99.90
9509;DHT22;4792;50.088;8.122;2022-09-09T04:12:35;14.40;99.90
9509;DHT22;4792;50.088;8.122;2022-09-09T04:15:03;14.40;99.90
9509;DHT22;4792;50.088;8.122;2022-09-09T04:17:32;14.30;99.90
9509;DHT22;4792;50.088;8.122;2022-09-09T04:20:00;14.30;99.90
9509;DHT22;4792;50.088;8.122;2022-09-09T04:22:29;14.30;99.90
9509;DHT22;4792;50.088;8.122;2022-09-09T04:24:58;14.20;99.90
9509;DHT22;4792;50.088;8.122;2022-09-09T04:27:26;14.20;99.90
9509;DHT22;4792;50.088;8.122;2022-09-09T04:29:54;14.30;99.90
9509;DHT22;4792;50.088;8.122;2022-09-09T04:32:23;14.30;99.90
9509;DHT22;4792;50.088;8.122;2022-09-09T04:34:53;14.30;99.90
9509;DHT22;4792;50.088;8.122;2022-09-09T04:37:21;14.30;99.90
9509;DHT22;4792;50.088;8.122;2022-09-09T04:39:51;14.30;99.90
9509;DHT22;4792;50.088;8.122;2022-09-09T04:42:21;14.20;99.90
9509;DHT22;4792;50.088;8.122;2022-09-09T04:44:49;14.20;99.90
9509;DHT22;4792;50.088;8.122;2022-09-09T04:47:17;14.20;99.90
9509;DHT22;4792;50.088;8.122;2022-09-09T04:49:45;14.20;99.90
9509;DHT22;4792;50.088;8.122;2022-09-09T04:52:14;14.20;99.90
9509;DHT22;4792;50.088;8.122;2022-09-09T04:54:44;14.20;99.90
9509;DHT22;4792;50.088;8.122;2022-09-09T04:57:12;14.10;99.90
9509;DHT22;4792;50.088;8.122;2022-09-09T04:59:46;14.10;99.90
9509;DHT22;4792;50.088;8.122;2022-09-09T05:02:14;14.10;99.90
9509;DHT22;4792;50.088;8.122;2022-09-09T05:04:42;14.10;99.90
9509;DHT22;4792;50.088;8.122;2022-09-09T05:07:10;14.20;99.90
9509;DHT22;4792;50.088;8.122;2022-09-09T05:09:40;14.20;99.90
9509;DHT22;4792;50.088;8.122;2022-09-09T05:12:08;14.30;99.90
9509;DHT22;4792;50.088;8.122;2022-09-09T05:14:36;14.30;99.90
9509;DHT22;4792;50.088;8.122;2022-09-09T05:17:06;14.20;99.90
9509;DHT22;4792;50.088;8.122;2022-09-09T05:19:34;14.30;99.90
9509;DHT22;4792;50.088;8.122;2022-09-09T05:22:02;14.30;99.90
9509;DHT22;4792;50.088;8.122;2022-09-09T05:24:31;14.20;99.90
9509;DHT22;4792;50.088;8.122;2022-09-09T05:27:00;14.20;99.90
9509;DHT22;4792;50.088;8.122;2022-09-09T05:29:29;14.10;99.90
9509;DHT22;4792;50.088;8.122;2022-09-09T05:32:00;14.00;99.90
9509;DHT22;4792;50.088;8.122;2022-09-09T05:34:30;14.00;99.90
9509;DHT22;4792;50.088;8.122;2022-09-09T05:36:58;14.00;99.90
9509;DHT22;4792;50.088;8.122;2022-09-09T05:39:26;14.00;99.90
9509;DHT22;4792;50.088;8.122;2022-09-09T05:41:54;14.00;99.90
9509;DHT22;4792;50.088;8.122;2022-09-09T05:44:22;13.90;99.90
9509;DHT22;4792;50.088;8.122;2022-09-09T05:46:54;14.00;99.90
9509;DHT22;4792;50.088;8.122;2022-09-09T05:49:22;13.90;99.90
9509;DHT22;4792;50.088;8.122;2022-09-09T05:51:51;14.00;99.90
9509;DHT22;4792;50.088;8.122;2022-09-09T05:54:19;14.00;99.90
9509;DHT22;4792;50.088;8.122;2022-09-09T05:56:47;14.00;99.90
9509;DHT22;4792;50.088;8.122;2022-09-09T05:59:17;14.10;99.90
9509;DHT22;4792;50.088;8.122;2022-09-09T06:01:46;14.20;99.90
9509;DHT22;4792;50.088;8.122;2022-09-09T06:04:14;14.20;99.90
9509;DHT22;4792;50.088;8.122;2022-09-09T06:06:42;14.20;99.90
9509;DHT22;4792;50.088;8.122;2022-09-09T06:09:12;14.30;99.90
9509;DHT22;4792;50.088;8.122;2022-09-09T06:11:40;14.30;99.90
9509;DHT22;4792;50.088;8.122;2022-09-09T06:14:08;14.40;99.90
9509;DHT22;4792;50.088;8.122;2022-09-09T06:16:36;14.40;99.90
9509;DHT22;4792;50.088;8.122;2022-09-09T06:19:05;14.40;99.90
9509;DHT22;4792;50.088;8.122;2022-09-09T06:21:35;14.40;99.90
9509;DHT22;4792;50.088;8.122;2022-09-09T06:24:04;14.40;99.90
9509;DHT22;4792;50.088;8.122;2022-09-09T06:26:36;14.40;99.90
9509;DHT22;4792;50.088;8.122;2022-09-09T06:29:08;14.50;99.90
9509;DHT22;4792;50.088;8.122;2022-09-09T06:31:37;14.40;99.90
9509;DHT22;4792;50.088;8.122;2022-09-09T06:34:06;14.50;99.90
9509;DHT22;4792;50.088;8.122;2022-09-09T06:36:37;14.40;99.90
9509;DHT22;4792;50.088;8.122;2022-09-09T06:39:06;14.40;99.90
9509;DHT22;4792;50.088;8.122;2022-09-09T06:41:42;14.40;99.90
9509;DHT22;4792;50.088;8.122;2022-09-09T06:44:10;14.30;99.90
9509;DHT22;4792;50.088;8.122;2022-09-09T06:46:39;14.30;99.90
9509;DHT22;4792;50.088;8.122;2022-09-09T06:49:08;14.40;99.90
9509;DHT22;4792;50.088;8.122;2022-09-09T06:51:37;14.40;99.90
9509;DHT22;4792;50.088;8.122;2022-09-09T06:54:10;14.40;99.90
9509;DHT22;4792;50.088;8.122;2022-09-09T06:56:39;14.40;99.90
9509;DHT22;4792;50.088;8.122;2022-09-09T06:59:10;14.40;99.90
9509;DHT22;4792;50.088;8.122;2022-09-09T07:01:40;14.40;99.90
9509;DHT22;4792;50.088;8.122;2022-09-09T07:04:08;14.40;99.90
9509;DHT22;4792;50.088;8.122;2022-09-09T07:06:39;14.40;99.90
9509;DHT22;4792;50.088;8.122;2022-09-09T07:09:10;14.50;99.90
9509;DHT22;4792;50.088;8.122;2022-09-09T07:11:40;14.40;99.90
9509;DHT22;4792;50.088;8.122;2022-09-09T07:14:10;14.40;99.90
9509;DHT22;4792;50.088;8.122;2022-09-09T07:16:40;14.40;99.90
9509;DHT22;4792;50.088;8.122;2022-09-09T07:19:09;14.30;99.90
9509;DHT22;4792;50.088;8.122;2022-09-09T07:21:37;14.30;99.90
9509;DHT22;4792;50.088;8.122;2022-09-09T07:24:07;14.30;99.90
9509;DHT22;4792;50.088;8.122;2022-09-09T07:26:37;14.40;99.90
9509;DHT22;4792;50.088;8.122;2022-09-09T07:29:06;14.40;99.90
9509;DHT22;4792;50.088;8.122;2022-09-09T07:31:37;14.50;99.90
9509;DHT22;4792;50.088;8.122;2022-09-09T07:34:07;14.50;99.90
9509;DHT22;4792;50.088;8.122;2022-09-09T07:36:36;14.40;99.90
9509;DHT22;4792;50.088;8.122;2022-09-09T07:39:07;14.50;99.90
9509;DHT22;4792;50.088;8.122;2022-09-09T07:41:38;14.60;99.90
9509;DHT22;4792;50.088;8.122;2022-09-09T07:44:08;14.60;99.90
9509;DHT22;4792;50.088;8.122;2022-09-09T07:46:39;14.60;99.90
9509;DHT22;4792;50.088;8.122;2022-09-09T07:49:08;14.60;99.90
9509;DHT22;4792;50.088;8.122;2022-09-09T07:51:38;14.70;99.90
9509;DHT22;4792;50.088;8.122;2022-09-09T07:54:08;14.70;99.90
9509;DHT22;4792;50.088;8.122;2022-09-09T07:56:38;14.80;99.90
9509;DHT22;4792;50.088;8.122;2022-09-09T07:59:07;14.90;99.90
9509;DHT22;4792;50.088;8.122;2022-09-09T08:01:39;15.10;99.90
9509;DHT22;4792;50.088;8.122;2022-09-09T08:04:09;15.20;99.90
9509;DHT22;4792;50.088;8.122;2022-09-09T08:06:44;15.40;99.90
9509;DHT22;4792;50.088;8.122;2022-09-09T08:09:13;15.60;99.90
9509;DHT22;4792;50.088;8.122;2022-09-09T08:11:43;15.50;99.90
9509;DHT22;4792;50.088;8.122;2022-09-09T08:14:12;15.60;99.90
9509;DHT22;4792;50.088;8.122;2022-09-09T08:16:43;15.80;99.90
9509;DHT22;4792;50.088;8.122;2022-09-09T08:19:12;15.90;99.90
9509;DHT22;4792;50.088;8.122;2022-09-09T08:21:43;15.90;99.90
9509;DHT22;4792;50.088;8.122;2022-09-09T08:24:12;15.80;99.90
9509;DHT22;4792;50.088;8.122;2022-09-09T08:26:43;15.80;99.90
9509;DHT22;4792;50.088;8.122;2022-09-09T08:29:12;15.80;99.90
9509;DHT22;4792;50.088;8.122;2022-09-09T08:31:44;15.80;99.90
9509;DHT22;4792;50.088;8.122;2022-09-09T08:34:14;15.70;99.90
9509;DHT22;4792;50.088;8.122;2022-09-09T08:36:44;15.70;99.90
9509;DHT22;4792;50.088;8.122;2022-09-09T08:39:13;15.60;99.90
9509;DHT22;4792;50.088;8.122;2022-09-09T08:41:56;15.60;99.90
9509;DHT22;4792;50.088;8.122;2022-09-09T08:44:42;15.60;99.90
9509;DHT22;4792;50.088;8.122;2022-09-09T08:47:21;15.70;99.90
9509;DHT22;4792;50.088;8.122;2022-09-09T08:50:17;15.70;99.90
9509;DHT22;4792;50.088;8.122;2022-09-09T08:52:53;15.80;99.90
9509;DHT22;4792;50.088;8.122;2022-09-09T08:55:35;15.90;99.90
9509;DHT22;4792;50.088;8.122;2022-09-09T08:58:09;16.00;99.90
9509;DHT22;4792;50.088;8.122;2022-09-09T09:00:46;16.00;99.90
9509;DHT22;4792;50.088;8.122;2022-09-09T09:03:28;16.10;99.90
9509;DHT22;4792;50.088;8.122;2022-09-09T09:06:04;16.30;99.90
9509;DHT22;4792;50.088;8.122;2022-09-09T09:08:40;16.40;99.90
9509;DHT22;4792;50.088;8.122;2022-09-09T09:11:12;16.60;99.90
9509;DHT22;4792;50.088;8.122;2022-09-09T09:13:43;16.90;99.90
9509;DHT22;4792;50.088;8.122;2022-09-09T09:16:19;17.20;99.90
9509;DHT22;4792;50.088;8.122;2022-09-09T09:18:51;17.30;99.90
9509;DHT22;4792;50.088;8.122;2022-09-09T09:21:24;17.10;99.90
9509;DHT22;4792;50.088;8.122;2022-09-09T09:23:57;16.90;99.90
9509;DHT22;4792;50.088;8.122;2022-09-09T09:26:30;16.80;99.90
9509;DHT22;4792;50.088;8.122;2022-09-09T09:29:03;16.80;99.90
9509;DHT22;4792;50.088;8.122;2022-09-09T09:31:37;16.90;99.90
9509;DHT22;4792;50.088;8.122;2022-09-09T09:34:08;17.10;99.90
9509;DHT22;4792;50.088;8.122;2022-09-09T09:36:41;17.40;99.90
9509;DHT22;4792;50.088;8.122;2022-09-09T09:39:23;17.60;99.90
9509;DHT22;4792;50.088;8.122;2022-09-09T09:42:12;18.00;99.90
9509;DHT22;4792;50.088;8.122;2022-09-09T09:44:48;18.20;99.90
9509;DHT22;4792;50.088;8.122;2022-09-09T09:47:19;18.50;99.90
9509;DHT22;4792;50.088;8.122;2022-09-09T09:49:56;18.50;99.90
9509;DHT22;4792;50.088;8.122;2022-09-09T09:52:27;18.50;99.90
9509;DHT22;4792;50.088;8.122;2022-09-09T09:54:57;18.80;99.90
9509;DHT22;4792;50.088;8.122;2022-09-09T09:57:33;18.70;99.90
9509;DHT22;4792;50.088;8.122;2022-09-09T10:00:04;18.50;99.90
9509;DHT22;4792;50.088;8.122;2022-09-09T10:02:38;18.90;99.90
9509;DHT22;4792;50.088;8.122;2022-09-09T10:05:13;18.80;99.90
9509;DHT22;4792;50.088;8.122;2022-09-09T10:07:42;19.10;99.90
9509;DHT22;4792;50.088;8.122;2022-09-09T10:10:16;19.60;99.90
9509;DHT22;4792;50.088;8.122;2022-09-09T10:12:57;20.00;99.90
9509;DHT22;4792;50.088;8.122;2022-09-09T10:15:35;19.80;99.90
9509;DHT22;4792;50.088;8.122;2022-09-09T10:18:28;19.90;99.90
9509;DHT22;4792;50.088;8.122;2022-09-09T10:21:09;20.20;99.90
9509;DHT22;4792;50.088;8.122;2022-09-09T10:24:01;20.50;99.90
9509;DHT22;4792;50.088;8.122;2022-09-09T10:26:42;20.60;99.90
9509;DHT22;4792;50.088;8.122;2022-09-09T10:29:40;20.60;99.90
9509;DHT22;4792;50.088;8.122;2022-09-09T10:32:30;20.00;99.90
9509;DHT22;4792;50.088;8.122;2022-09-09T10:35:04;19.90;99.90
9509;DHT22;4792;50.088;8.122;2022-09-09T10:38:03;19.70;99.90
9509;DHT22;4792;50.088;8.122;2022-09-09T10:40:36;20.10;99.90
9509;DHT22;4792;50.088;8.122;2022-09-09T10:43:18;20.40;99.90
9509;DHT22;4792;50.088;8.122;2022-09-09T10:45:55;20.80;99.90
9509;DHT22;4792;50.088;8.122;2022-09-09T10:48:31;20.90;99.90
9509;DHT22;4792;50.088;8.122;2022-09-09T10:51:31;20.70;99.90
9509;DHT22;4792;50.088;8.122;2022-09-09T10:54:18;21.10;99.90
9509;DHT22;4792;50.088;8.122;2022-09-09T10:56:54;20.50;99.90
9509;DHT22;4792;50.088;8.122;2022-09-09T10:59:25;19.80;99.90
9509;DHT22;4792;50.088;8.122;2022-09-09T11:01:58;19.70;99.90
9509;DHT22;4792;50.088;8.122;2022-09-09T11:04:31;19.50;99.90
9509;DHT22;4792;50.088;8.122;2022-09-09T11:07:05;19.10;99.90
9509;DHT22;4792;50.088;8.122;2022-09-09T11:09:41;19.10;99.90
9509;DHT22;4792;50.088;8.122;2022-09-09T11:12:15;19.00;99.90
9509;DHT22;4792;50.088;8.122;2022-09-09T11:14:48;19.10;99.90
9509;DHT22;4792;50.088;8.122;2022-09-09T11:17:20;19.10;99.90
9509;DHT22;4792;50.088;8.122;2022-09-09T11:19:49;19.00;99.90
9509;DHT22;4792;50.088;8.122;2022-09-09T11:22:25;19.10;99.90
9509;DHT22;4792;50.088;8.122;2022-09-09T11:24:58;19.10;99.90
9509;DHT22;4792;50.088;8.122;2022-09-09T11:27:31;19.10;99.90
9509;DHT22;4792;50.088;8.122;2022-09-09T11:30:18;19.00;99.90
9509;DHT22;4792;50.088;8.122;2022-09-09T11:33:38;19.20;99.90
9509;DHT22;4792;50.088;8.122;2022-09-09T11:36:36;19.30;99.90
9509;DHT22;4792;50.088;8.122;2022-09-09T11:39:20;19.20;99.90
9509;DHT22;4792;50.088;8.122;2022-09-09T11:42:06;19.00;99.90
9509;DHT22;4792;50.088;8.122;2022-09-09T11:44:34;18.90;99.90
9509;DHT22;4792;50.088;8.122;2022-09-09T11:47:03;18.90;99.90
9509;DHT22;4792;50.088;8.122;2022-09-09T11:49:43;18.70;99.90
9509;DHT22;4792;50.088;8.122;2022-09-09T11:52:13;18.60;99.90
9509;DHT22;4792;50.088;8.122;2022-09-09T11:54:48;18.60;99.90
9509;DHT22;4792;50.088;8.122;2022-09-09T11:57:25;18.60;99.90
9509;DHT22;4792;50.088;8.122;2022-09-09T11:59:55;18.60;99.90
9509;DHT22;4792;50.088;8.122;2022-09-09T12:02:24;18.40;99.90
9509;DHT22;4792;50.088;8.122;2022-09-09T12:04:58;18.20;99.90
9509;DHT22;4792;50.088;8.122;2022-09-09T12:07:36;18.10;99.90
9509;DHT22;4792;50.088;8.122;2022-09-09T12:10:22;18.00;99.90
9509;DHT22;4792;50.088;8.122;2022-09-09T12:12:52;17.90;99.90
9509;DHT22;4792;50.088;8.122;2022-09-09T12:15:26;17.90;99.90
9509;DHT22;4792;50.088;8.122;2022-09-09T12:17:57;17.90;99.90
9509;DHT22;4792;50.088;8.122;2022-09-09T12:20:34;17.90;99.90
9509;DHT22;4792;50.088;8.122;2022-09-09T12:23:13;18.50;99.90
9509;DHT22;4792;50.088;8.122;2022-09-09T12:29:15;19.60;99.90
9509;DHT22;4792;50.088;8.122;2022-09-09T12:31:51;19.80;99.90
9509;DHT22;4792;50.088;8.122;2022-09-09T12:34:32;20.10;99.90
9509;DHT22;4792;50.088;8.122;2022-09-09T12:37:06;20.00;99.90
9509;DHT22;4792;50.088;8.122;2022-09-09T12:39:39;20.10;99.90
9509;DHT22;4792;50.088;8.122;2022-09-09T12:42:17;20.00;99.90
9509;DHT22;4792;50.088;8.122;2022-09-09T12:44:54;19.70;99.90
9509;DHT22;4792;50.088;8.122;2022-09-09T12:47:31;20.00;99.90
9509;DHT22;4792;50.088;8.122;2022-09-09T12:50:03;19.80;99.90
9509;DHT22;4792;50.088;8.122;2022-09-09T12:52:33;20.20;99.90
9509;DHT22;4792;50.088;8.122;2022-09-09T12:55:05;20.30;99.90
9509;DHT22;4792;50.088;8.122;2022-09-09T12:57:36;20.30;99.90
9509;DHT22;4792;50.088;8.122;2022-09-09T13:00:14;20.50;99.90
9509;DHT22;4792;50.088;8.122;2022-09-09T13:02:49;20.50;99.90
9509;DHT22;4792;50.088;8.122;2022-09-09T13:05:21;20.60;99.90
9509;DHT22;4792;50.088;8.122;2022-09-09T13:07:50;20.70;99.90
9509;DHT22;4792;50.088;8.122;2022-09-09T13:10:25;20.20;99.90
9509;DHT22;4792;50.088;8.122;2022-09-09T13:13:13;20.40;99.90
9509;DHT22;4792;50.088;8.122;2022-09-09T13:15:50;20.10;99.90
9509;DHT22;4792;50.088;8.122;2022-09-09T13:18:22;19.80;99.90
9509;DHT22;4792;50.088;8.122;2022-09-09T13:20:51;20.00;99.90
9509;DHT22;4792;50.088;8.122;2022-09-09T13:23:20;20.20;99.90
9509;DHT22;4792;50.088;8.122;2022-09-09T13:25:55;20.40;99.90
9509;DHT22;4792;50.088;8.122;2022-09-09T13:28:26;20.80;99.90
9509;DHT22;4792;50.088;8.122;2022-09-09T13:31:04;20.30;99.90
9509;DHT22;4792;50.088;8.122;2022-09-09T13:33:35;19.90;99.90
9509;DHT22;4792;50.088;8.122;2022-09-09T13:36:06;19.30;99.90
9509;DHT22;4792;50.088;8.122;2022-09-09T13:38:37;19.20;99.90
9509;DHT22;4792;50.088;8.122;2022-09-09T13:41:07;18.90;99.90
9509;DHT22;4792;50.088;8.122;2022-09-09T13:43:38;18.70;99.90
9509;DHT22;4792;50.088;8.122;2022-09-09T13:46:26;18.50;99.90
9509;DHT22;4792;50.088;8.122;2022-09-09T13:48:56;18.40;99.90
9509;DHT22;4792;50.088;8.122;2022-09-09T13:51:32;18.30;99.90
9509;DHT22;4792;50.088;8.122;2022-09-09T13:54:01;18.20;99.90
9509;DHT22;4792;50.088;8.122;2022-09-09T13:56:29;18.20;99.90
9509;DHT22;4792;50.088;8.122;2022-09-09T13:58:58;18.10;99.90
9509;DHT22;4792;50.088;8.122;2022-09-09T14:01:28;18.00;99.90
9509;DHT22;4792;50.088;8.122;2022-09-09T14:03:56;17.60;99.90
9509;DHT22;4792;50.088;8.122;2022-09-09T14:06:25;17.50;99.90
9509;DHT22;4792;50.088;8.122;2022-09-09T14:08:54;17.20;99.90
9509;DHT22;4792;50.088;8.122;2022-09-09T14:11:22;17.10;99.90
9509;DHT22;4792;50.088;8.122;2022-09-09T14:13:50;17.30;99.90
9509;DHT22;4792;50.088;8.122;2022-09-09T14:16:18;17.60;99.90
9509;DHT22;4792;50.088;8.122;2022-09-09T14:18:48;17.90;99.90
9509;DHT22;4792;50.088;8.122;2022-09-09T14:21:17;17.90;99.90
9509;DHT22;4792;50.088;8.122;2022-09-09T14:23:45;17.90;99.90
9509;DHT22;4792;50.088;8.122;2022-09-09T14:26:13;17.90;99.90
9509;DHT22;4792;50.088;8.122;2022-09-09T14:28:41;18.20;99.90
9509;DHT22;4792;50.088;8.122;2022-09-09T14:31:25;18.30;99.90
9509;DHT22;4792;50.088;8.122;2022-09-09T14:33:55;18.70;99.90
9509;DHT22;4792;50.088;8.122;2022-09-09T14:36:23;18.90;99.90
9509;DHT22;4792;50.088;8.122;2022-09-09T14:38:52;19.40;99.90
9509;DHT22;4792;50.088;8.122;2022-09-09T14:41:20;19.40;99.90
9509;DHT22;4792;50.088;8.122;2022-09-09T14:43:50;19.50;99.90
9509;DHT22;4792;50.088;8.122;2022-09-09T14:46:19;19.10;99.90
9509;DHT22;4792;50.088;8.122;2022-09-09T14:48:48;19.00;99.90
9509;DHT22;4792;50.088;8.122;2022-09-09T14:51:20;19.20;99.90
9509;DHT22;4792;50.088;8.122;2022-09-09T14:53:51;18.90;99.90
9509;DHT22;4792;50.088;8.122;2022-09-09T14:56:22;18.80;99.90
9509;DHT22;4792;50.088;8.122;2022-09-09T14:58:53;19.10;99.90
9509;DHT22;4792;50.088;8.122;2022-09-09T15:01:22;19.30;99.90
9509;DHT22;4792;50.088;8.122;2022-09-09T15:03:53;19.40;99.90
9509;DHT22;4792;50.088;8.122;2022-09-09T15:06:23;19.80;99.90
9509;DHT22;4792;50.088;8.122;2022-09-09T15:08:53;19.80;99.90
9509;DHT22;4792;50.088;8.122;2022-09-09T15:11:21;19.60;99.90
9509;DHT22;4792;50.088;8.122;2022-09-09T15:13:52;19.10;99.90
9509;DHT22;4792;50.088;8.122;2022-09-09T15:16:24;18.90;99.90
9509;DHT22;4792;50.088;8.122;2022-09-09T15:18:53;18.70;99.90
9509;DHT22;4792;50.088;8.122;2022-09-09T15:21:27;18.50;99.90
9509;DHT22;4792;50.088;8.122;2022-09-09T15:23:56;18.30;99.90
9509;DHT22;4792;50.088;8.122;2022-09-09T15:26:24;18.20;99.90
9509;DHT22;4792;50.088;8.122;2022-09-09T15:28:54;18.10;99.90
9509;DHT22;4792;50.088;8.122;2022-09-09T15:31:24;17.90;99.90
9509;DHT22;4792;50.088;8.122;2022-09-09T15:33:58;17.90;99.90
9509;DHT22;4792;50.088;8.122;2022-09-09T15:36:30;17.90;99.90
9509;DHT22;4792;50.088;8.122;2022-09-09T15:39:00;17.70;99.90
9509;DHT22;4792;50.088;8.122;2022-09-09T15:41:29;17.60;99.90
9509;DHT22;4792;50.088;8.122;2022-09-09T15:43:58;17.50;99.90
9509;DHT22;4792;50.088;8.122;2022-09-09T15:46:30;17.30;99.90
9509;DHT22;4792;50.088;8.122;2022-09-09T15:49:04;17.40;99.90
9509;DHT22;4792;50.088;8.122;2022-09-09T15:51:34;17.30;99.90
9509;DHT22;4792;50.088;8.122;2022-09-09T15:54:11;17.20;99.90
9509;DHT22;4792;50.088;8.122;2022-09-09T15:56:40;17.20;99.90
9509;DHT22;4792;50.088;8.122;2022-09-09T15:59:09;17.20;99.90
9509;DHT22;4792;50.088;8.122;2022-09-09T16:01:38;17.20;99.90
9509;DHT22;4792;50.088;8.122;2022-09-09T16:04:08;17.10;99.90
9509;DHT22;4792;50.088;8.122;2022-09-09T16:06:37;17.10;99.90
9509;DHT22;4792;50.088;8.122;2022-09-09T16:09:07;17.10;99.90
9509;DHT22;4792;50.088;8.122;2022-09-09T16:11:38;17.10;99.90
9509;DHT22;4792;50.088;8.122;2022-09-09T16:14:07;17.20;99.90
9509;DHT22;4792;50.088;8.122;2022-09-09T16:16:35;17.20;99.90
9509;DHT22;4792;50.088;8.122;2022-09-09T16:19:06;17.10;99.90
9509;DHT22;4792;50.088;8.122;2022-09-09T16:21:39;17.00;99.90
9509;DHT22;4792;50.088;8.122;2022-09-09T16:24:09;17.00;99.90
9509;DHT22;4792;50.088;8.122;2022-09-09T16:26:40;17.00;99.90
9509;DHT22;4792;50.088;8.122;2022-09-09T16:29:09;17.00;99.90
9509;DHT22;4792;50.088;8.122;2022-09-09T16:31:38;17.00;99.90
9509;DHT22;4792;50.088;8.122;2022-09-09T16:34:07;16.90;99.90
9509;DHT22;4792;50.088;8.122;2022-09-09T16:36:38;16.90;99.90
9509;DHT22;4792;50.088;8.122;2022-09-09T16:39:09;16.90;99.90
9509;DHT22;4792;50.088;8.122;2022-09-09T16:41:38;16.80;99.90